Walla Walla, WA

4:24 PM PST on December 28, 2014 (GMT -0800)
Whitman | Change Station
CLOSE
Current Station
Personal Weather Station
Location: Walla Walla, WA
Elevation: 994 ft
Nearby Weather Stations

Elev 994 ft 46.07 °N, 118.33 °W | Updated 5 minutes ago

Overcast
Overcast
38.0 °F
Feels Like 38 °F
N
1.0
Wind Variable Wind from SE
Gusts 8.0 mph

Today
High -- | Low -- °F
--% Chance of Precip.
Yesterday
High -- | Low -- °F
Precip. -- in
7:35 AM 4:15 PM
First Quarter, 53% visible
Pressure 30.17 in
Visibility 10.0 miles
Clouds Few 2100 ft
Overcast 7000 ft
Windchill 38 °F
Dew Point 34 °F
Humidity 87%
Rainfall 0.00 in
Snow Depth Not available.
UV 0 out of 12
Pollen .40 out of 12
Air Quality Not available.
Flu Activity Not available.
METAR KALW 282353Z 18007KT 10SM FEW021 OVC070 04/02 A3014 RMK AO2 SLP214 60001 T00390017 10050 20039 53006

More Conditions Fewer Conditions

Pressure 30.17 in
Visibility 10.0 miles
Clouds Few 2100 ft
Overcast 7000 ft
Windchill 38 °F
Dew Point 34 °F
Humidity 87%
Rainfall 0.00 in
Snow Depth Not available.
UV 0 out of 12
Pollen .40 out of 12
Air Quality Not available.
Flu Activity Not available.
METAR KALW 282353Z 18007KT 10SM FEW021 OVC070 04/02 A3014 RMK AO2 SLP214 60001 T00390017 10050 20039 53006

More Conditions Fewer Conditions

10-Day Weather Forecast

Almanac

Astronomy

Dec. 28, 2014 Rise Set
Actual Time
Civil Twilight
Nautical Twilight
Astronomical Twilight
Moon
Length of Visible Light
Length of Day
Tomorrow will be .
, % of the Moon is Illuminated

Today's Extremes

State Highs State Lows

Community

WunderPhotos

Upload Photos

1,781,468 photos uploaded!

WunderBlogs® & News

Nearby

Air Quality

  Air Quality AQ Index Pollutant
Not available.

Snow Depth

Station Depth Elevation

Earthquake Activity

City Distance Mag. Time & Date
Minimum magnitude displayed is 2.5.

Coastal Water Temperatures

Place Temperature

Nearby Weather Stations